Time;durP1;ratioP1;P1;durP2;ratioP2;P2;SDS_P1;SDS_P2;PMS_P1;PMS_P2;Temp;Humidity;BMP_temperature;BMP_pressure;BME280_temperature;BME280_humidity;BME280_pressure;Samples;Min_cycle;Max_cycle;Signal;HPM_P1;HPM_P2
2022/06/16 00:02:00;;;;;;;;;;;22.90;57.20;;;;;;4901395;29;19918;-68
2022/06/16 00:04:25;;;;;;;;;;;22.70;57.60;;;;;;4900384;29;19951;-68
2022/06/16 00:06:51;;;;;;;;;;;22.70;57.50;;;;;;4899773;29;19940;-68
2022/06/16 00:09:16;;;;;;;;;;;22.70;57.50;;;;;;4899991;29;19912;-68
2022/06/16 00:11:42;;;;;;;;;;;22.60;57.80;;;;;;4900331;29;20276;-68
2022/06/16 00:14:10;;;;;;;;;;;22.40;58.10;;;;;;4899794;29;19919;-68
2022/06/16 00:16:35;;;;;;;;;;;22.40;58.30;;;;;;4899757;29;19923;-68
2022/06/16 00:19:01;;;;;;;;;;;22.50;57.80;;;;;;4899683;29;19911;-68
2022/06/16 00:21:26;;;;;;;;;;;22.50;58.20;;;;;;4899629;29;19974;-68
2022/06/16 00:24:27;;;;;;;;;;;22.50;58.20;;;;;;4899465;29;20296;-68
2022/06/16 00:26:54;;;;;;;;;;;22.70;57.40;;;;;;4899521;29;20424;-68
2022/06/16 00:29:19;;;;;;;;;;;23.00;56.80;;;;;;4899476;29;19958;-68
2022/06/16 00:31:45;;;;;;;;;;;22.90;56.40;;;;;;4899648;29;20349;-68
2022/06/16 00:34:10;;;;;;;;;;;22.80;56.70;;;;;;4899419;29;20006;-68
2022/06/16 00:36:37;;;;;;;;;;;22.80;56.60;;;;;;4898229;29;19915;-68
2022/06/16 00:39:03;;;;;;;;;;;22.60;56.80;;;;;;4899562;29;19911;-68
2022/06/16 00:41:29;;;;;;;;;;;22.60;57.70;;;;;;4899442;29;19919;-68
2022/06/16 00:43:58;;;;;;;;;;;22.50;57.60;;;;;;4899307;29;19912;-68
2022/06/16 00:46:24;;;;;;;;;;;22.50;58.20;;;;;;4899202;29;20277;-67
2022/06/16 00:48:51;;;;;;;;;;;22.40;58.00;;;;;;4899008;29;19912;-67
2022/06/16 00:51:17;;;;;;;;;;;22.40;58.20;;;;;;4899128;29;19919;-67
2022/06/16 00:53:43;;;;;;;;;;;22.50;58.10;;;;;;4899078;29;19911;-67
2022/06/16 00:56:10;;;;;;;;;;;22.60;57.70;;;;;;4899227;29;19926;-67
2022/06/16 00:58:37;;;;;;;;;;;22.60;57.40;;;;;;4898933;29;19935;-67
2022/06/16 01:01:03;;;;;;;;;;;22.50;57.30;;;;;;4899170;29;20383;-67
2022/06/16 01:06:20;;;;;;;;;;;22.40;58.00;;;;;;4898859;29;19934;-68
2022/06/16 01:08:48;;;;;;;;;;;22.50;57.60;;;;;;4899046;29;19911;-68
2022/06/16 01:13:41;;;;;;;;;;;22.60;57.30;;;;;;4899010;29;19912;-67
2022/06/16 01:14:10;;;;;;;;;;;22.80;57.10;;;;;;4898732;29;20047;-67
2022/06/16 01:16:41;;;;;;;;;;;22.90;56.90;;;;;;4899282;29;19962;-67
2022/06/16 01:19:06;;;;;;;;;;;23.00;56.50;;;;;;4898809;29;19911;-67
2022/06/16 01:22:01;;;;;;;;;;;23.00;56.70;;;;;;4898748;29;20371;-67
2022/06/16 01:24:54;;;;;;;;;;;22.90;57.10;;;;;;4894401;29;19927;-67
2022/06/16 01:27:19;;;;;;;;;;;23.00;57.10;;;;;;4898680;29;19911;-67
2022/06/16 01:30:03;;;;;;;;;;;23.20;57.30;;;;;;4898700;29;19935;-67
2022/06/16 01:32:38;;;;;;;;;;;23.20;57.40;;;;;;4898658;29;19911;-67
2022/06/16 01:35:22;;;;;;;;;;;23.30;57.40;;;;;;4898809;29;20324;-67
2022/06/16 01:37:50;;;;;;;;;;;23.40;57.30;;;;;;4898662;29;19916;-67
2022/06/16 01:40:22;;;;;;;;;;;23.40;57.30;;;;;;4898824;29;19951;-68
2022/06/16 01:42:53;;;;;;;;;;;23.50;57.30;;;;;;4898826;29;19921;-67
2022/06/16 01:45:28;;;;;;;;;;;23.50;57.20;;;;;;4898704;29;19912;-67
2022/06/16 01:47:53;;;;;;;;;;;23.30;57.10;;;;;;4898767;29;19939;-68
2022/06/16 01:50:39;;;;;;;;;;;23.10;57.90;;;;;;4898345;29;19938;-68
2022/06/16 01:53:10;;;;;;;;;;;23.20;57.90;;;;;;4898206;29;20010;-67
2022/06/16 01:55:38;;;;;;;;;;;23.10;58.10;;;;;;4898225;29;20356;-68
2022/06/16 01:58:12;;;;;;;;;;;23.20;58.10;;;;;;4898555;29;19967;-67
2022/06/16 02:00:39;;;;;;;;;;;23.20;58.10;;;;;;4898546;29;19923;-67
2022/06/16 02:03:07;;;;;;;;;;;23.10;58.00;;;;;;4898517;29;19911;-67
2022/06/16 02:05:44;;;;;;;;;;;22.80;58.80;;;;;;4898357;29;19919;-68
2022/06/16 02:08:15;;;;;;;;;;;22.90;59.40;;;;;;4898733;29;19912;-67
2022/06/16 02:10:46;;;;;;;;;;;22.80;59.90;;;;;;4898347;29;19961;-67
2022/06/16 02:13:13;;;;;;;;;;;22.80;60.40;;;;;;4898428;29;19961;-67
2022/06/16 02:15:43;;;;;;;;;;;22.70;60.60;;;;;;4898201;29;20056;-68
2022/06/16 02:18:11;;;;;;;;;;;22.70;61.20;;;;;;4898229;29;19918;-67
2022/06/16 02:20:57;;;;;;;;;;;22.60;62.40;;;;;;4898197;29;20300;-67
2022/06/16 02:23:22;;;;;;;;;;;22.50;61.80;;;;;;4897849;29;19911;-67
2022/06/16 02:25:49;;;;;;;;;;;22.40;61.90;;;;;;4898447;29;19915;-67
2022/06/16 02:28:15;;;;;;;;;;;22.30;62.30;;;;;;4898348;29;19912;-68
2022/06/16 02:30:47;;;;;;;;;;;22.30;62.60;;;;;;4901165;29;20372;-67
2022/06/16 02:33:35;;;;;;;;;;;22.30;62.80;;;;;;4901857;29;20329;-67
2022/06/16 02:36:17;;;;;;;;;;;22.30;62.70;;;;;;4901539;29;20364;-67
2022/06/16 02:38:51;;;;;;;;;;;22.30;63.30;;;;;;4901643;29;20373;-67
2022/06/16 02:41:26;;;;;;;;;;;22.30;63.40;;;;;;4901592;29;19912;-67
2022/06/16 02:44:01;;;;;;;;;;;22.20;63.60;;;;;;4901610;29;19985;-67
2022/06/16 02:46:29;;;;;;;;;;;22.20;63.70;;;;;;4901519;29;19916;-67
2022/06/16 02:49:00;;;;;;;;;;;22.20;63.40;;;;;;4901352;29;19915;-67
2022/06/16 02:51:36;;;;;;;;;;;22.20;63.20;;;;;;4901296;29;19911;-67
2022/06/16 02:54:13;;;;;;;;;;;22.20;62.90;;;;;;4901303;29;19911;-68
2022/06/16 02:56:46;;;;;;;;;;;22.10;63.90;;;;;;4901458;29;19920;-68
2022/06/16 02:59:14;;;;;;;;;;;22.10;63.90;;;;;;4901062;29;20359;-67
2022/06/16 03:01:40;;;;;;;;;;;22.10;64.10;;;;;;4901179;29;20348;-67
2022/06/16 03:04:10;;;;;;;;;;;22.20;63.60;;;;;;4901152;29;19994;-67
2022/06/16 03:06:36;;;;;;;;;;;22.20;63.40;;;;;;4901088;29;20260;-68
2022/06/16 03:09:02;;;;;;;;;;;22.20;63.10;;;;;;4901029;29;19918;-68
2022/06/16 03:11:27;;;;;;;;;;;22.30;62.70;;;;;;4901047;29;19915;-67
2022/06/16 03:13:54;;;;;;;;;;;22.30;63.20;;;;;;4901259;29;20368;-67
2022/06/16 03:16:19;;;;;;;;;;;22.30;63.70;;;;;;4900818;29;20308;-67
2022/06/16 03:18:45;;;;;;;;;;;22.20;63.90;;;;;;4900677;29;19911;-67
2022/06/16 03:21:10;;;;;;;;;;;22.10;64.30;;;;;;4900640;29;19979;-67
2022/06/16 03:23:36;;;;;;;;;;;22.10;63.80;;;;;;4900893;29;19922;-67
2022/06/16 03:26:01;;;;;;;;;;;22.20;63.30;;;;;;4900731;29;19911;-67
2022/06/16 03:28:27;;;;;;;;;;;22.10;64.30;;;;;;4900518;29;19959;-67
2022/06/16 03:30:53;;;;;;;;;;;21.90;64.90;;;;;;4900982;29;19912;-67
2022/06/16 03:33:19;;;;;;;;;;;21.80;65.30;;;;;;4900644;29;19911;-67
2022/06/16 03:35:44;;;;;;;;;;;21.70;65.50;;;;;;4900922;29;20037;-67
2022/06/16 03:38:56;;;;;;;;;;;21.70;65.50;;;;;;4900677;29;19915;-67
2022/06/16 03:40:57;;;;;;;;;;;21.80;65.40;;;;;;4893381;29;20002;-67
2022/06/16 03:43:22;;;;;;;;;;;21.70;64.70;;;;;;4901541;29;20399;-67
2022/06/16 03:45:48;;;;;;;;;;;21.80;64.40;;;;;;4901206;29;19915;-68
2022/06/16 03:48:14;;;;;;;;;;;21.90;64.60;;;;;;4900613;29;19911;-67
2022/06/16 03:50:39;;;;;;;;;;;22.00;64.20;;;;;;4900344;29;19911;-67
2022/06/16 03:53:05;;;;;;;;;;;22.10;63.60;;;;;;4900257;29;19954;-68
2022/06/16 03:55:31;;;;;;;;;;;22.20;63.30;;;;;;4900398;29;19920;-67
2022/06/16 03:57:57;;;;;;;;;;;22.10;63.60;;;;;;4900104;29;20395;-67
2022/06/16 04:00:23;;;;;;;;;;;22.00;64.50;;;;;;4899867;29;19915;-67
2022/06/16 04:03:59;;;;;;;;;;;21.90;64.90;;;;;;4899824;29;19971;-67
2022/06/16 04:05:34;;;;;;;;;;;22.00;64.80;;;;;;4899940;29;20364;-67
2022/06/16 04:08:00;;;;;;;;;;;22.00;64.40;;;;;;4900035;29;19912;-67
2022/06/16 04:10:25;;;;;;;;;;;21.90;65.00;;;;;;4899758;29;20416;-67
2022/06/16 04:12:51;;;;;;;;;;;21.80;65.80;;;;;;4900150;29;20370;-67
2022/06/16 04:15:16;;;;;;;;;;;21.80;66.30;;;;;;4899845;29;19930;-68
2022/06/16 04:17:42;;;;;;;;;;;21.80;66.10;;;;;;4900032;29;20407;-68
2022/06/16 04:20:13;;;;;;;;;;;21.90;65.30;;;;;;4899376;29;19922;-67
2022/06/16 04:22:40;;;;;;;;;;;22.00;66.00;;;;;;4899772;29;19915;-67
2022/06/16 04:25:07;;;;;;;;;;;22.00;66.10;;;;;;4899661;29;20360;-67
2022/06/16 04:27:33;;;;;;;;;;;22.00;66.40;;;;;;4899563;29;19940;-68
2022/06/16 04:29:58;;;;;;;;;;;22.00;65.60;;;;;;4899673;29;19912;-68
2022/06/16 04:32:24;;;;;;;;;;;22.00;66.60;;;;;;4899492;29;19918;-68
2022/06/16 04:34:50;;;;;;;;;;;22.00;66.50;;;;;;4899449;29;19916;-68
2022/06/16 04:37:15;;;;;;;;;;;21.90;66.70;;;;;;4899417;29;19918;-68
2022/06/16 04:39:41;;;;;;;;;;;21.90;66.40;;;;;;4899312;29;19911;-68
2022/06/16 04:42:06;;;;;;;;;;;22.00;66.70;;;;;;4899247;29;19911;-68
2022/06/16 04:44:34;;;;;;;;;;;22.10;66.30;;;;;;4899479;29;19911;-67
2022/06/16 04:47:01;;;;;;;;;;;22.10;66.80;;;;;;4899100;29;20288;-67
2022/06/16 04:49:28;;;;;;;;;;;22.00;67.10;;;;;;4899390;29;19911;-68
2022/06/16 04:51:53;;;;;;;;;;;22.10;66.70;;;;;;4899069;29;19933;-67
2022/06/16 04:54:19;;;;;;;;;;;22.20;66.50;;;;;;4899352;29;20363;-68
2022/06/16 04:56:44;;;;;;;;;;;22.30;65.70;;;;;;4898900;29;19916;-67
2022/06/16 04:59:10;;;;;;;;;;;22.30;65.50;;;;;;4899104;29;20399;-68
2022/06/16 05:01:36;;;;;;;;;;;22.20;65.90;;;;;;4899140;29;20024;-67
2022/06/16 05:04:01;;;;;;;;;;;22.20;65.70;;;;;;4898916;29;20295;-67
2022/06/16 05:06:27;;;;;;;;;;;22.30;64.70;;;;;;4899259;29;20010;-67
2022/06/16 05:08:53;;;;;;;;;;;22.30;66.40;;;;;;4899027;29;19912;-67
2022/06/16 05:11:19;;;;;;;;;;;22.40;66.00;;;;;;4899044;29;20356;-68
2022/06/16 05:13:44;;;;;;;;;;;22.40;65.90;;;;;;4899002;29;20257;-68
2022/06/16 05:16:10;;;;;;;;;;;22.30;66.60;;;;;;4898835;29;19975;-67
2022/06/16 05:18:35;;;;;;;;;;;22.30;67.10;;;;;;4898891;29;20360;-68
2022/06/16 05:21:12;;;;;;;;;;;22.30;68.10;;;;;;4898678;29;19931;-67
2022/06/16 05:23:37;;;;;;;;;;;22.20;68.50;;;;;;4898593;29;19919;-68
2022/06/16 05:26:04;;;;;;;;;;;22.20;69.00;;;;;;4898891;29;20309;-68
2022/06/16 05:28:31;;;;;;;;;;;22.20;69.10;;;;;;4899080;29;20026;-68
2022/06/16 05:30:56;;;;;;;;;;;22.30;68.90;;;;;;4898918;29;19918;-68
2022/06/16 05:33:22;;;;;;;;;;;22.40;69.40;;;;;;4898979;29;19998;-67
2022/06/16 05:36:06;;;;;;;;;;;22.50;68.90;;;;;;4898713;29;19927;-67
2022/06/16 05:38:31;;;;;;;;;;;23.00;67.60;;;;;;4898425;29;20040;-72
2022/06/16 05:40:58;;;;;;;;;;;23.70;62.30;;;;;;4898661;29;20321;-70
2022/06/16 05:43:23;;;;;;;;;;;24.40;59.90;;;;;;4898670;29;20372;-72
2022/06/16 05:45:49;;;;;;;;;;;25.10;58.50;;;;;;4898774;29;19967;-71
2022/06/16 05:48:14;;;;;;;;;;;25.60;57.20;;;;;;4898258;29;19946;-71
2022/06/16 05:50:40;;;;;;;;;;;26.00;55.90;;;;;;4898278;29;20408;-71
2022/06/16 05:53:05;;;;;;;;;;;26.40;54.70;;;;;;4898404;29;20287;-71
2022/06/16 05:55:31;;;;;;;;;;;26.70;54.40;;;;;;4898270;29;20288;-70
2022/06/16 05:57:57;;;;;;;;;;;27.00;54.20;;;;;;4898511;29;19918;-70
2022/06/16 06:00:22;;;;;;;;;;;27.20;53.40;;;;;;4898405;29;20285;-68
2022/06/16 06:02:51;;;;;;;;;;;27.40;52.50;;;;;;4898309;29;20396;-69
2022/06/16 06:05:17;;;;;;;;;;;27.70;52.20;;;;;;4901353;29;19919;-67
2022/06/16 06:18:39;;;;;;;;;;;28.50;48.80;;;;;;4898744;29;19970;-72
2022/06/16 06:21:04;;;;;;;;;;;28.60;48.80;;;;;;4890954;29;19958;-70
2022/06/16 06:23:30;;;;;;;;;;;28.70;48.40;;;;;;4892287;29;19916;-72
2022/06/16 06:25:56;;;;;;;;;;;28.90;47.80;;;;;;4892383;29;19912;-68
2022/06/16 06:28:22;;;;;;;;;;;28.90;46.90;;;;;;4890715;29;20296;-70
2022/06/16 06:30:48;;;;;;;;;;;28.90;46.90;;;;;;4892449;29;19918;-64
2022/06/16 06:33:13;;;;;;;;;;;29.00;46.60;;;;;;4891994;29;19919;-67
2022/06/16 06:35:39;;;;;;;;;;;29.00;46.90;;;;;;4890570;29;20458;-68
2022/06/16 06:38:04;;;;;;;;;;;29.10;46.80;;;;;;4892855;29;19911;-66
2022/06/16 06:40:31;;;;;;;;;;;29.20;46.80;;;;;;4891105;29;20281;-67
2022/06/16 06:42:57;;;;;;;;;;;29.30;46.00;;;;;;4890807;29;19911;-66
2022/06/16 06:45:22;;;;;;;;;;;29.40;45.70;;;;;;4897816;29;19915;-69
2022/06/16 06:47:48;;;;;;;;;;;29.40;45.10;;;;;;4891691;29;19922;-69
2022/06/16 06:50:28;;;;;;;;;;;29.50;45.70;;;;;;4892212;29;19979;-68
2022/06/16 06:52:53;;;;;;;;;;;29.40;46.30;;;;;;4892226;29;19911;-69
2022/06/16 06:55:19;;;;;;;;;;;29.40;46.90;;;;;;4892014;29;20386;-69
2022/06/16 06:57:46;;;;;;;;;;;29.40;47.00;;;;;;4890908;29;20010;-73
2022/06/16 07:00:14;;;;;;;;;;;29.30;47.10;;;;;;4887629;29;20280;-74
2022/06/16 07:02:39;;;;;;;;;;;29.20;46.70;;;;;;4886187;29;20333;-70
2022/06/16 07:05:05;;;;;;;;;;;29.30;46.00;;;;;;4891267;29;19912;-72
2022/06/16 07:07:32;;;;;;;;;;;29.20;46.20;;;;;;4886042;29;19912;-74
2022/06/16 07:09:58;;;;;;;;;;;29.20;46.60;;;;;;4894866;29;19916;-72
2022/06/16 07:12:23;;;;;;;;;;;29.10;46.50;;;;;;4901113;29;19998;-72
2022/06/16 07:14:50;;;;;;;;;;;29.20;46.40;;;;;;4892420;29;19928;-75
2022/06/16 07:17:18;;;;;;;;;;;29.30;46.80;;;;;;4890219;29;19912;-74
2022/06/16 07:19:44;;;;;;;;;;;29.30;46.60;;;;;;4889796;29;19943;-75
2022/06/16 07:22:09;;;;;;;;;;;29.50;46.50;;;;;;4889997;29;19963;-72
2022/06/16 07:24:35;;;;;;;;;;;29.60;45.70;;;;;;4891597;29;19911;-72
2022/06/16 07:27:01;;;;;;;;;;;29.60;45.20;;;;;;4890985;29;19966;-71
2022/06/16 07:29:27;;;;;;;;;;;29.60;45.00;;;;;;4889957;29;19921;-72
2022/06/16 07:31:52;;;;;;;;;;;29.60;45.40;;;;;;4891269;29;19912;-71
2022/06/16 07:34:18;;;;;;;;;;;29.70;45.10;;;;;;4895519;29;20487;-72
2022/06/16 07:36:43;;;;;;;;;;;29.90;44.60;;;;;;4900120;29;19920;-74
2022/06/16 07:39:09;;;;;;;;;;;29.90;44.70;;;;;;4900233;29;19998;-74
2022/06/16 07:41:34;;;;;;;;;;;29.90;44.20;;;;;;4900677;29;20356;-73
2022/06/16 07:44:04;;;;;;;;;;;29.90;44.10;;;;;;4900511;29;20291;-73
2022/06/16 07:46:30;;;;;;;;;;;29.90;44.60;;;;;;4900420;29;19912;-71
2022/06/16 07:48:56;;;;;;;;;;;29.90;44.70;;;;;;4900218;29;19912;-71
2022/06/16 07:51:22;;;;;;;;;;;30.00;43.70;;;;;;4900170;29;20360;-71
2022/06/16 07:53:48;;;;;;;;;;;30.10;43.80;;;;;;4900167;29;19963;-72
2022/06/16 07:56:14;;;;;;;;;;;30.10;43.70;;;;;;4899962;29;20013;-72
2022/06/16 07:58:40;;;;;;;;;;;30.20;43.60;;;;;;4900092;29;19912;-71
2022/06/16 08:01:09;;;;;;;;;;;30.10;43.00;;;;;;4900233;29;19947;-72
2022/06/16 08:03:35;;;;;;;;;;;30.10;43.30;;;;;;4900060;29;19917;-69
2022/06/16 08:06:02;;;;;;;;;;;30.10;43.80;;;;;;4899824;29;19927;-72
2022/06/16 08:08:27;;;;;;;;;;;30.20;44.30;;;;;;4899658;29;19911;-70
2022/06/16 08:10:54;;;;;;;;;;;30.10;44.10;;;;;;4899754;29;20001;-73
2022/06/16 08:13:20;;;;;;;;;;;30.20;44.30;;;;;;4899815;29;19919;-70
2022/06/16 08:15:46;;;;;;;;;;;30.20;43.70;;;;;;4899654;29;19926;-72
2022/06/16 08:18:14;;;;;;;;;;;30.20;43.20;;;;;;4899085;29;20477;-70
2022/06/16 08:20:41;;;;;;;;;;;30.20;43.90;;;;;;4899575;29;19930;-70
2022/06/16 08:23:07;;;;;;;;;;;30.10;44.20;;;;;;4899411;29;20385;-70
2022/06/16 08:25:32;;;;;;;;;;;30.10;43.40;;;;;;4901673;29;19912;-74
2022/06/16 08:28:01;;;;;;;;;;;30.10;43.70;;;;;;4902778;29;19915;-73
2022/06/16 08:30:27;;;;;;;;;;;29.90;43.90;;;;;;4904347;29;19955;-70
2022/06/16 08:32:52;;;;;;;;;;;29.90;44.10;;;;;;4904752;29;20002;-70
2022/06/16 08:35:18;;;;;;;;;;;30.00;44.50;;;;;;4901686;29;19930;-71
2022/06/16 08:37:43;;;;;;;;;;;29.90;44.80;;;;;;4902541;29;19911;-69
2022/06/16 08:40:10;;;;;;;;;;;30.00;44.80;;;;;;4901543;29;19912;-67
2022/06/16 08:42:40;;;;;;;;;;;29.80;44.60;;;;;;4899118;29;20368;-68
2022/06/16 08:45:15;;;;;;;;;;;29.80;44.50;;;;;;4899378;29;19912;-69
2022/06/16 08:47:46;;;;;;;;;;;29.60;44.90;;;;;;4899221;29;19912;-68
2022/06/16 08:50:22;;;;;;;;;;;29.40;45.10;;;;;;4899034;29;19915;-67
2022/06/16 08:52:54;;;;;;;;;;;29.20;45.70;;;;;;4899113;29;19912;-68
2022/06/16 08:55:25;;;;;;;;;;;29.30;46.10;;;;;;4899139;29;19920;-66
2022/06/16 08:58:14;;;;;;;;;;;29.20;46.20;;;;;;4899066;29;19919;-69
2022/06/16 09:00:40;;;;;;;;;;;29.10;46.00;;;;;;4897687;29;19916;-70
2022/06/16 09:03:13;;;;;;;;;;;29.00;46.30;;;;;;4899089;29;19917;-68
2022/06/16 09:05:42;;;;;;;;;;;29.00;46.60;;;;;;4899086;29;19915;-70
2022/06/16 09:08:18;;;;;;;;;;;29.00;46.70;;;;;;4898721;29;19967;-69
2022/06/16 09:10:50;;;;;;;;;;;29.10;47.00;;;;;;4898949;29;19912;-69
2022/06/16 09:13:48;;;;;;;;;;;29.20;46.30;;;;;;4898821;29;19915;-67
2022/06/16 09:16:28;;;;;;;;;;;29.20;45.80;;;;;;4887439;29;19926;-70
2022/06/16 09:19:06;;;;;;;;;;;29.30;44.90;;;;;;4898665;29;20010;-67
2022/06/16 09:21:38;;;;;;;;;;;29.40;44.60;;;;;;4898487;29;19978;-67
2022/06/16 09:24:07;;;;;;;;;;;29.40;43.20;;;;;;4898696;29;20368;-66
2022/06/16 09:26:50;;;;;;;;;;;29.50;43.60;;;;;;4898560;29;20039;-68
2022/06/16 09:29:16;;;;;;;;;;;29.50;44.20;;;;;;4898541;29;19912;-68
2022/06/16 09:31:44;;;;;;;;;;;29.50;44.40;;;;;;4898509;29;19918;-66
2022/06/16 09:34:17;;;;;;;;;;;29.50;44.70;;;;;;4898817;29;20067;-67
2022/06/16 09:36:50;;;;;;;;;;;29.50;44.20;;;;;;4898480;29;19919;-66
2022/06/16 09:39:16;;;;;;;;;;;29.50;44.50;;;;;;4899825;29;19918;-71
2022/06/16 09:44:41;;;;;;;;;;;29.50;45.10;;;;;;4902781;29;19918;-69
2022/06/16 09:47:12;;;;;;;;;;;29.60;44.80;;;;;;4902576;29;20269;-69
2022/06/16 09:49:43;;;;;;;;;;;29.60;44.50;;;;;;4902867;29;19933;-67
2022/06/16 09:52:16;;;;;;;;;;;29.50;45.60;;;;;;4902315;29;19915;-68
2022/06/16 09:54:44;;;;;;;;;;;29.50;46.30;;;;;;4900809;29;19968;-68
2022/06/16 09:57:13;;;;;;;;;;;29.40;46.70;;;;;;4902459;29;19946;-74
2022/06/16 09:59:50;;;;;;;;;;;29.40;47.80;;;;;;4902164;29;19975;-69
2022/06/16 10:02:15;;;;;;;;;;;29.30;47.40;;;;;;4902015;29;19911;-69
2022/06/16 10:04:41;;;;;;;;;;;29.20;48.60;;;;;;4898911;29;19912;-71
2022/06/16 10:07:21;;;;;;;;;;;29.10;48.50;;;;;;4891295;29;19964;-68
2022/06/16 10:09:52;;;;;;;;;;;29.00;48.60;;;;;;4893096;29;19912;-68
2022/06/16 10:12:31;;;;;;;;;;;29.00;48.80;;;;;;4892752;29;19916;-67
2022/06/16 10:15:07;;;;;;;;;;;28.90;48.10;;;;;;4890194;29;19916;-68
2022/06/16 10:17:34;;;;;;;;;;;28.90;48.10;;;;;;4883195;29;19918;-65
2022/06/16 10:19:59;;;;;;;;;;;28.90;47.30;;;;;;4882618;29;19919;-69
2022/06/16 10:22:26;;;;;;;;;;;28.80;47.50;;;;;;4881714;29;19911;-65
2022/06/16 10:24:51;;;;;;;;;;;28.70;47.90;;;;;;4883079;29;20357;-70
2022/06/16 10:27:18;;;;;;;;;;;28.70;48.60;;;;;;4882915;29;19937;-70
2022/06/16 10:30:10;;;;;;;;;;;28.70;48.20;;;;;;4882746;29;20339;-65
2022/06/16 10:32:46;;;;;;;;;;;28.60;48.80;;;;;;4881716;29;19911;-69
2022/06/16 10:35:19;;;;;;;;;;;28.60;49.20;;;;;;4882907;29;19959;-67
2022/06/16 10:37:46;;;;;;;;;;;28.70;48.80;;;;;;4882868;29;20324;-68
2022/06/16 10:40:31;;;;;;;;;;;28.70;48.50;;;;;;4882557;29;19994;-70
2022/06/16 10:43:05;;;;;;;;;;;28.70;48.60;;;;;;4890094;29;19919;-73
2022/06/16 10:45:32;;;;;;;;;;;28.80;48.10;;;;;;4885856;29;20392;-73
2022/06/16 10:48:07;;;;;;;;;;;28.70;48.10;;;;;;4900176;29;19959;-71
2022/06/16 10:50:38;;;;;;;;;;;28.70;48.10;;;;;;4900696;29;19912;-69
2022/06/16 10:53:05;;;;;;;;;;;28.70;48.20;;;;;;4901138;29;20280;-69
2022/06/16 10:55:41;;;;;;;;;;;28.60;48.20;;;;;;4901038;29;19958;-70
2022/06/16 10:58:16;;;;;;;;;;;28.60;49.00;;;;;;4901151;29;20363;-68
2022/06/16 11:00:41;;;;;;;;;;;28.60;48.10;;;;;;4900969;29;19986;-63
2022/06/16 11:03:07;;;;;;;;;;;28.60;48.10;;;;;;4901214;29;20352;-68
2022/06/16 11:05:36;;;;;;;;;;;28.60;47.90;;;;;;4900932;29;19915;-69
2022/06/16 11:08:12;;;;;;;;;;;28.60;48.20;;;;;;4901094;29;19912;-66
2022/06/16 11:10:49;;;;;;;;;;;28.60;49.00;;;;;;4900858;29;19919;-69
2022/06/16 11:13:16;;;;;;;;;;;28.60;48.50;;;;;;4892334;29;20380;-66
2022/06/16 11:15:46;;;;;;;;;;;28.70;48.40;;;;;;4890070;29;20091;-63
2022/06/16 11:18:15;;;;;;;;;;;28.80;47.80;;;;;;4891748;29;20003;-69
2022/06/16 11:20:42;;;;;;;;;;;28.80;48.20;;;;;;4890962;29;19923;-68
2022/06/16 11:23:25;;;;;;;;;;;28.80;50.20;;;;;;4894991;29;20002;-65
2022/06/16 11:26:06;;;;;;;;;;;28.90;47.30;;;;;;4899632;29;20329;-64
2022/06/16 11:28:39;;;;;;;;;;;28.90;46.90;;;;;;4899336;29;20390;-66
2022/06/16 11:31:06;;;;;;;;;;;28.90;48.80;;;;;;4899270;29;19920;-67
2022/06/16 11:36:20;;;;;;;;;;;29.00;48.10;;;;;;4899457;29;19927;-66
2022/06/16 11:38:56;;;;;;;;;;;28.90;48.20;;;;;;4899011;29;19911;-68
2022/06/16 11:41:24;;;;;;;;;;;28.90;49.10;;;;;;4888140;29;19919;-64
2022/06/16 11:43:49;;;;;;;;;;;28.90;49.30;;;;;;4897263;29;19966;-66
2022/06/16 11:46:19;;;;;;;;;;;28.90;49.30;;;;;;4899217;29;19951;-64
2022/06/16 11:48:50;;;;;;;;;;;28.90;49.20;;;;;;4899148;29;19911;-65
2022/06/16 11:51:28;;;;;;;;;;;28.90;49.20;;;;;;4897127;29;19911;-62
2022/06/16 11:54:05;;;;;;;;;;;28.90;50.00;;;;;;4899049;29;19912;-70
2022/06/16 11:56:34;;;;;;;;;;;28.70;50.40;;;;;;4896611;29;19924;-69
2022/06/16 11:59:20;;;;;;;;;;;28.80;50.90;;;;;;4898855;29;19911;-67
2022/06/16 12:01:48;;;;;;;;;;;28.70;51.10;;;;;;4897942;29;19926;-66
2022/06/16 12:04:32;;;;;;;;;;;28.70;51.60;;;;;;4898842;29;20420;-67
2022/06/16 12:07:16;;;;;;;;;;;28.70;52.00;;;;;;4898881;29;19939;-65
2022/06/16 12:09:41;;;;;;;;;;;28.70;51.80;;;;;;4897632;29;20288;-66
2022/06/16 12:12:28;;;;;;;;;;;28.70;52.30;;;;;;4898664;29;19912;-66
2022/06/16 12:15:13;;;;;;;;;;;28.80;51.70;;;;;;4896783;29;19975;-65
2022/06/16 12:17:39;;;;;;;;;;;28.70;51.20;;;;;;4898886;29;20268;-67
2022/06/16 12:20:37;;;;;;;;;;;28.70;51.20;;;;;;4898597;29;19915;-65
2022/06/16 12:23:06;;;;;;;;;;;28.70;51.40;;;;;;4873315;29;19926;-67
2022/06/16 12:25:38;;;;;;;;;;;28.80;51.30;;;;;;4898504;29;19966;-64
2022/06/16 12:28:12;;;;;;;;;;;28.80;51.20;;;;;;4898456;29;19912;-65
2022/06/16 12:30:40;;;;;;;;;;;28.80;51.20;;;;;;4898479;29;19918;-65
2022/06/16 12:33:06;;;;;;;;;;;28.80;50.90;;;;;;4898322;29;20030;-67
2022/06/16 12:35:34;;;;;;;;;;;28.90;50.20;;;;;;4898215;29;20420;-68
2022/06/16 12:38:07;;;;;;;;;;;28.90;49.50;;;;;;4897238;29;19911;-71
2022/06/16 12:40:42;;;;;;;;;;;28.90;50.10;;;;;;4895850;29;19911;-69
2022/06/16 12:43:14;;;;;;;;;;;28.80;49.90;;;;;;4898127;29;19920;-67
2022/06/16 12:45:45;;;;;;;;;;;28.90;50.00;;;;;;4898157;29;20352;-69
2022/06/16 12:48:24;;;;;;;;;;;28.90;49.60;;;;;;4898046;29;19915;-67
2022/06/16 12:50:53;;;;;;;;;;;28.90;50.10;;;;;;4898299;29;19920;-64
2022/06/16 12:53:30;;;;;;;;;;;28.90;49.60;;;;;;4898159;29;19915;-66
2022/06/16 12:56:00;;;;;;;;;;;28.90;48.80;;;;;;4898205;29;20392;-65
2022/06/16 12:58:33;;;;;;;;;;;28.90;49.00;;;;;;4898572;29;19915;-64
2022/06/16 13:01:02;;;;;;;;;;;28.90;50.30;;;;;;4898549;29;19915;-64
2022/06/16 13:03:52;;;;;;;;;;;28.90;50.10;;;;;;4898804;29;19915;-63
2022/06/16 13:06:19;;;;;;;;;;;28.80;49.30;;;;;;4897506;29;19915;-63
2022/06/16 13:08:47;;;;;;;;;;;28.70;49.20;;;;;;4899287;29;20404;-70
2022/06/16 13:11:16;;;;;;;;;;;28.70;49.40;;;;;;4899064;29;19912;-67
2022/06/16 13:13:45;;;;;;;;;;;28.60;50.30;;;;;;4896225;29;20010;-70
2022/06/16 13:16:14;;;;;;;;;;;28.50;50.20;;;;;;4899950;29;19930;-69
2022/06/16 13:18:45;;;;;;;;;;;28.50;50.90;;;;;;4901490;29;19915;-68
2022/06/16 13:21:18;;;;;;;;;;;28.50;50.90;;;;;;4904873;29;19923;-68
2022/06/16 13:23:46;;;;;;;;;;;28.50;49.50;;;;;;4904055;29;19919;-64
2022/06/16 13:26:15;;;;;;;;;;;28.50;48.90;;;;;;4902291;29;20387;-62
2022/06/16 13:28:40;;;;;;;;;;;28.40;49.30;;;;;;4901251;29;20006;-63
2022/06/16 13:31:09;;;;;;;;;;;28.40;50.10;;;;;;4900475;29;19958;-61
2022/06/16 13:33:45;;;;;;;;;;;28.40;49.30;;;;;;4901266;29;19911;-68
2022/06/16 13:36:16;;;;;;;;;;;28.40;49.40;;;;;;4900487;29;19930;-65
2022/06/16 13:38:44;;;;;;;;;;;28.40;49.30;;;;;;4898838;29;20002;-64
2022/06/16 13:41:36;;;;;;;;;;;28.40;50.10;;;;;;4898544;29;19934;-67
2022/06/16 13:44:04;;;;;;;;;;;28.40;49.50;;;;;;4896461;29;20348;-67
2022/06/16 13:46:50;;;;;;;;;;;28.40;49.50;;;;;;4898389;29;20405;-68
2022/06/16 13:49:35;;;;;;;;;;;28.30;48.50;;;;;;4878601;29;19912;-69
2022/06/16 13:52:06;;;;;;;;;;;28.40;48.70;;;;;;4898422;29;19911;-67
2022/06/16 13:54:34;;;;;;;;;;;28.40;49.20;;;;;;4898473;29;19918;-67
2022/06/16 13:57:15;;;;;;;;;;;28.40;49.20;;;;;;4898269;29;20400;-67
2022/06/16 13:59:42;;;;;;;;;;;28.40;48.40;;;;;;4898259;29;19912;-64
2022/06/16 14:02:10;;;;;;;;;;;28.30;48.80;;;;;;4898415;29;19999;-69
2022/06/16 14:05:00;;;;;;;;;;;28.40;49.20;;;;;;4898163;29;19979;-63
2022/06/16 14:07:35;;;;;;;;;;;28.40;48.30;;;;;;4898461;29;20367;-69
2022/06/16 14:10:04;;;;;;;;;;;28.40;48.20;;;;;;4898067;29;19915;-67
2022/06/16 14:12:50;;;;;;;;;;;28.50;48.00;;;;;;4898241;29;19912;-67
2022/06/16 14:15:16;;;;;;;;;;;28.50;48.10;;;;;;4893810;29;20287;-66
2022/06/16 14:18:00;;;;;;;;;;;28.40;48.20;;;;;;4888178;29;19911;-63
2022/06/16 14:20:29;;;;;;;;;;;28.40;48.00;;;;;;4889213;29;19915;-67
2022/06/16 14:22:57;;;;;;;;;;;28.40;47.60;;;;;;4889450;29;19943;-66
2022/06/16 14:25:26;;;;;;;;;;;28.40;48.20;;;;;;4888995;29;20003;-67
2022/06/16 14:27:54;;;;;;;;;;;28.30;47.50;;;;;;4891416;29;19916;-68
2022/06/16 14:30:22;;;;;;;;;;;28.30;47.90;;;;;;4892800;29;19973;-64
2022/06/16 14:33:04;;;;;;;;;;;28.20;46.80;;;;;;4890624;29;19912;-69
2022/06/16 14:35:36;;;;;;;;;;;28.20;47.40;;;;;;4892615;29;19924;-69
2022/06/16 14:38:20;;;;;;;;;;;28.10;47.80;;;;;;4892582;29;19912;-63
2022/06/16 14:40:52;;;;;;;;;;;28.10;47.30;;;;;;4892802;29;20290;-67
2022/06/16 14:43:21;;;;;;;;;;;28.00;47.40;;;;;;4892492;29;19911;-65
2022/06/16 14:45:50;;;;;;;;;;;28.00;47.50;;;;;;4891630;29;19912;-68
2022/06/16 14:48:28;;;;;;;;;;;28.00;48.30;;;;;;4890475;29;19976;-64
2022/06/16 14:50:56;;;;;;;;;;;28.00;47.80;;;;;;4893170;29;19912;-68
2022/06/16 14:53:32;;;;;;;;;;;27.90;48.60;;;;;;4901086;29;20368;-67